Ana Sayfa
METAR-TAF:

METAR-TAF

Havaalanları :

Funchal, Madeira, Portekiz

Enlem: 32-41-52N, Boylam: 016-46-28W, yükseklik: 59 m

Güncel hava durumu gözlemi

Rapor saat 00:00 UTC de 35 dakika önce yapıldı.
Rüzgar değişken yönden 1 kt
Sıcaklık 19°C
Nem 83%
Basınç 1018 hPa
Görüş mesafesi 10 km veya daha fazla
1500 ft yükseklikte az bulutlu

METAR: LPMA 250000Z VRB01KT 9999 FEW015 19/16 Q1018

Saat: 01:35 (00:35 UTC)

Tahmin

Rapor saat 23:00 UTC de 1 saat ve 35 dakika önce yapıldı.
Ayın 25'si saat 00 UTC'den ayın 25'si saat 24 UTC'ye kadar geçerli Tahmin
Rüzgar değişken yönden 5 kt
Görüş mesafesi 10 km veya daha fazla
1500 ft yükseklikte parçalı bulutlu
Olasılık 30% :
Geçici
ayın 25'si saat 00 UTC'den ayın 25'si saat 24 UTC'ye kadar
1500 ft yükseklikte parçalı çok bulutlu
Geçici
ayın 25'si saat 09 UTC'den ayın 25'si saat 18 UTC'ye kadar
Rüzgar güney/güneybatıdan 8 kt

TAF: LPMA 242300Z 2500/2524 VRB05KT 9999 SCT015 PROB30 TEMPO 2500/2524 BKN015 TEMPO 2509/2518 20008KT

4.000'den fazla havaalanı için hava durumu gözlemleri ve tahminleri (METAR ve TAF raporları).

Kullanılabilir istasyonlar harita üzerinde sarı ve kırmızı noktalarla gösterilir.

İstasyonun adını görmek için fareyi noktanın üzerinde gezdirin.

Sonrasında hava gözlem ve tahminlerini görmek için tıklayın.

Haritayı değiştirmek için: yaklaştırmak için siyah artı işaretli yeşil düğmeye ve uzaklaştırmak için de eksi işaretli düğmeye hızla tıklayın; bitişik haritalar için yeşil okları kullanın.


METAR-TAF: